Time;durP1;ratioP1;P1;durP2;ratioP2;P2;SDS_P1;SDS_P2;PMS_P1;PMS_P2;Temp;Humidity;BMP_temperature;BMP_pressure;BME280_temperature;BME280_humidity;BME280_pressure;Samples;Min_cycle;Max_cycle;Signal;HPM_P1;HPM_P2
2023/12/23 00:00:05;;;;;;;;;;;;;;;0.91;68.86;98771.02;106446;1268;112199;-66
2023/12/23 00:02:34;;;;;;;;;;;;;;;0.94;68.87;98784.77;106496;1268;109183;-66
2023/12/23 00:05:03;;;;;;;;;;;;;;;0.94;68.79;98791.77;106422;1268;108339;-66
2023/12/23 00:07:31;;;;;;;;;;;;;;;0.98;68.65;98786.77;106472;1268;97770;-66
2023/12/23 00:09:59;;;;;;;;;;;;;;;1.00;68.66;98794.17;106458;1268;98013;-65
2023/12/23 00:12:28;;;;;;;;;;;;;;;1.02;68.77;98787.45;106477;1268;110875;-65
2023/12/23 00:14:56;;;;;;;;;;;;;;;1.06;68.91;98790.02;106430;1268;108086;-66
2023/12/23 00:17:24;;;;;;;;;;;;;;;1.08;68.93;98791.94;106425;1269;108212;-66
2023/12/23 00:19:53;;;;;;;;;;;;;;;1.13;69.30;98803.08;106480;1270;97841;-66
2023/12/23 00:22:21;;;;;;;;;;;;;;;1.18;69.60;98814.64;106436;1268;97845;-66
2023/12/23 00:24:49;;;;;;;;;;;;;;;1.21;69.68;98829.00;106459;1269;111183;-68
2023/12/23 00:27:17;;;;;;;;;;;;;;;1.25;69.71;98838.21;106482;1272;107799;-66
2023/12/23 00:29:45;;;;;;;;;;;;;;;1.32;69.90;98841.25;106481;1268;107222;-66
2023/12/23 00:32:13;;;;;;;;;;;;;;;1.36;69.90;98839.52;106471;1268;98549;-68
2023/12/23 00:34:41;;;;;;;;;;;;;;;1.40;69.99;98839.15;106396;1268;97943;-67
2023/12/23 00:37:09;;;;;;;;;;;;;;;1.45;70.27;98847.98;106340;1270;110759;-67
2023/12/23 00:39:39;;;;;;;;;;;;;;;1.49;70.63;98852.05;106349;1268;108093;-67
2023/12/23 00:42:08;;;;;;;;;;;;;;;1.51;70.69;98848.66;106300;1268;108383;-66
2023/12/23 00:44:36;;;;;;;;;;;;;;;1.55;70.71;98841.27;106982;1268;97853;-66
2023/12/23 00:47:04;;;;;;;;;;;;;;;1.56;70.77;98834.52;106301;1273;97958;-66
2023/12/23 00:49:33;;;;;;;;;;;;;;;1.52;70.89;98822.96;106426;1269;111049;-66
2023/12/23 00:52:01;;;;;;;;;;;;;;;1.47;70.73;98834.88;106562;1268;108615;-66
2023/12/23 00:54:29;;;;;;;;;;;;;;;1.48;70.92;98836.39;106432;1268;108495;-67
2023/12/23 00:56:57;;;;;;;;;;;;;;;1.50;70.99;98843.85;106414;1272;97999;-66
2023/12/23 00:59:25;;;;;;;;;;;;;;;1.50;70.87;98844.35;106500;1268;97845;-66
2023/12/23 01:01:53;;;;;;;;;;;;;;;1.48;70.79;98839.01;106568;1268;111692;-65
2023/12/23 01:04:23;;;;;;;;;;;;;;;1.44;70.73;98833.92;106468;1268;108109;-65
2023/12/23 01:06:51;;;;;;;;;;;;;;;1.38;70.91;98828.89;106496;1268;108333;-66
2023/12/23 01:09:19;;;;;;;;;;;;;;;1.33;71.15;98822.95;106479;1268;97857;-67
2023/12/23 01:11:47;;;;;;;;;;;;;;;1.30;71.26;98823.02;106430;1268;97783;-68
2023/12/23 01:14:16;;;;;;;;;;;;;;;1.27;71.20;98828.05;106434;1268;111400;-67
2023/12/23 01:16:44;;;;;;;;;;;;;;;1.21;71.12;98822.81;106503;1268;107565;-66
2023/12/23 01:19:13;;;;;;;;;;;;;;;1.14;70.81;98816.55;106554;1268;108835;-66
2023/12/23 01:21:41;;;;;;;;;;;;;;;1.03;70.81;98820.04;106460;1268;97873;-66
2023/12/23 01:24:09;;;;;;;;;;;;;;;0.97;70.96;98817.00;106543;1268;97759;-66
2023/12/23 01:26:37;;;;;;;;;;;;;;;0.91;70.96;98810.02;106451;1268;112364;-65
2023/12/23 01:29:05;;;;;;;;;;;;;;;0.83;70.67;98800.63;106494;1268;110131;-66
2023/12/23 01:31:33;;;;;;;;;;;;;;;0.74;70.58;98795.90;106427;1268;107950;-65
2023/12/23 01:34:02;;;;;;;;;;;;;;;0.67;70.79;98797.86;106432;1268;97877;-66
2023/12/23 01:36:30;;;;;;;;;;;;;;;0.61;70.75;98789.65;106522;1268;97940;-66
2023/12/23 01:38:58;;;;;;;;;;;;;;;0.55;70.95;98780.39;106517;1268;111211;-66
2023/12/23 01:41:27;;;;;;;;;;;;;;;0.53;71.37;98772.63;106457;1268;109093;-66
2023/12/23 01:43:55;;;;;;;;;;;;;;;0.50;71.44;98763.02;106468;1268;108346;-66
2023/12/23 01:46:23;;;;;;;;;;;;;;;0.47;71.40;98762.22;106484;1268;97878;-66
2023/12/23 01:48:52;;;;;;;;;;;;;;;0.39;71.35;98759.61;106483;1268;97869;-66
2023/12/23 01:51:21;;;;;;;;;;;;;;;0.30;71.33;98761.55;106633;1268;112187;-68
2023/12/23 01:53:49;;;;;;;;;;;;;;;0.23;71.17;98760.49;106523;1268;107134;-67
2023/12/23 01:56:17;;;;;;;;;;;;;;;0.15;71.06;98747.58;106469;1268;108121;-67
2023/12/23 01:58:45;;;;;;;;;;;;;;;0.10;71.03;98741.41;106397;1268;97869;-67
2023/12/23 02:01:14;;;;;;;;;;;;;;;0.06;71.09;98743.84;106508;1268;97907;-65
2023/12/23 02:03:42;;;;;;;;;;;;;;;0.03;71.26;98747.84;106505;1268;112009;-66
2023/12/23 02:06:10;;;;;;;;;;;;;;;0.00;71.42;98744.50;106453;1268;107224;-65
2023/12/23 02:08:39;;;;;;;;;;;;;;;-0.01;71.66;98744.56;106512;1268;106472;-66
2023/12/23 02:11:11;;;;;;;;;;;;;;;-0.01;71.65;98744.06;106509;1268;97916;-66
2023/12/23 02:13:45;;;;;;;;;;;;;;;-0.01;71.51;98764.46;106508;1268;98677;-66
2023/12/23 02:16:15;;;;;;;;;;;;;;;-0.03;71.44;98781.02;106467;1268;110512;-66
2023/12/23 02:18:45;;;;;;;;;;;;;;;-0.05;71.42;98796.55;106519;1268;108601;-66
2023/12/23 02:21:14;;;;;;;;;;;;;;;-0.07;71.18;98798.41;106404;1270;110874;-67
2023/12/23 02:23:42;;;;;;;;;;;;;;;-0.07;71.29;98800.51;106464;1268;97950;-67
2023/12/23 02:26:11;;;;;;;;;;;;;;;-0.05;71.53;98806.23;106530;1268;98212;-66
2023/12/23 02:28:40;;;;;;;;;;;;;;;-0.04;71.51;98806.11;106507;1268;111259;-66
2023/12/23 02:31:08;;;;;;;;;;;;;;;-0.02;71.91;98798.55;106554;1270;107827;-66
2023/12/23 02:33:37;;;;;;;;;;;;;;;-0.04;72.12;98798.14;106437;1268;108331;-66
2023/12/23 02:36:05;;;;;;;;;;;;;;;-0.07;72.53;98798.94;106517;1268;97947;-66
2023/12/23 02:38:33;;;;;;;;;;;;;;;-0.10;73.14;98787.90;106549;1268;97901;-66
2023/12/23 02:41:01;;;;;;;;;;;;;;;-0.13;73.08;98781.24;106502;1272;111859;-67
2023/12/23 02:43:29;;;;;;;;;;;;;;;-0.16;73.09;98775.69;106525;1268;107989;-67
2023/12/23 02:45:58;;;;;;;;;;;;;;;-0.20;73.57;98763.44;106485;1268;107739;-67
2023/12/23 02:48:25;;;;;;;;;;;;;;;-0.24;74.94;98762.69;106460;1268;98029;-67
2023/12/23 02:50:54;;;;;;;;;;;;;;;-0.30;74.73;98764.05;106432;1268;98031;-66
2023/12/23 02:53:22;;;;;;;;;;;;;;;-0.38;74.82;98761.29;106541;1268;111262;-66
2023/12/23 02:55:51;;;;;;;;;;;;;;;-0.44;75.81;98760.70;106567;1268;107536;-67
2023/12/23 02:58:19;;;;;;;;;;;;;;;-0.51;76.22;98762.20;106498;1268;108606;-66
2023/12/23 03:00:47;;;;;;;;;;;;;;;-0.57;77.20;98759.39;106428;1268;97850;-66
2023/12/23 03:03:15;;;;;;;;;;;;;;;-0.62;77.70;98769.79;106536;1268;98461;-65
2023/12/23 03:05:43;;;;;;;;;;;;;;;-0.67;77.13;98771.57;106578;1268;111860;-64
2023/12/23 03:08:12;;;;;;;;;;;;;;;-0.72;76.63;98766.77;106545;1268;107078;-66
2023/12/23 03:10:40;;;;;;;;;;;;;;;-0.73;76.57;98758.10;106436;1268;107851;-66
2023/12/23 03:13:08;;;;;;;;;;;;;;;-0.73;76.47;98764.11;106465;1268;97881;-65
2023/12/23 03:15:37;;;;;;;;;;;;;;;-0.74;76.28;98769.28;106453;1268;98032;-66
2023/12/23 03:18:05;;;;;;;;;;;;;;;-0.74;76.38;98757.98;106451;1268;111934;-66
2023/12/23 03:20:34;;;;;;;;;;;;;;;-0.74;76.61;98751.62;106507;1268;108168;-66
2023/12/23 03:23:05;;;;;;;;;;;;;;;-0.74;76.44;98754.29;106463;1268;107480;-66
2023/12/23 03:25:33;;;;;;;;;;;;;;;-0.73;76.32;98746.63;106487;1268;97898;-66
2023/12/23 03:28:01;;;;;;;;;;;;;;;-0.72;75.92;98737.77;106529;1268;97777;-66
2023/12/23 03:30:29;;;;;;;;;;;;;;;-0.71;76.01;98726.40;106473;1268;110875;-66
2023/12/23 03:32:57;;;;;;;;;;;;;;;-0.71;75.69;98723.23;106432;1268;107333;-66
2023/12/23 03:35:26;;;;;;;;;;;;;;;-0.70;75.64;98735.71;106493;1268;108337;-67
2023/12/23 03:37:54;;;;;;;;;;;;;;;-0.70;75.75;98734.25;106437;1268;97868;-66
2023/12/23 03:40:22;;;;;;;;;;;;;;;-0.70;75.85;98730.36;106457;1272;97981;-66
2023/12/23 03:42:51;;;;;;;;;;;;;;;-0.68;75.66;98739.18;106424;1268;111692;-66
2023/12/23 03:45:20;;;;;;;;;;;;;;;-0.66;75.47;98745.55;106503;1268;107674;-66
2023/12/23 03:47:50;;;;;;;;;;;;;;;-0.66;75.21;98743.27;106481;1272;108292;-66
2023/12/23 03:50:18;;;;;;;;;;;;;;;-0.65;75.45;98733.87;106515;1273;97891;-67
2023/12/23 03:52:47;;;;;;;;;;;;;;;-0.64;75.23;98733.15;106548;1268;97738;-66
2023/12/23 03:55:15;;;;;;;;;;;;;;;-0.66;75.11;98732.54;106525;1268;111560;-66
2023/12/23 03:57:44;;;;;;;;;;;;;;;-0.62;75.15;98733.35;106444;1268;108044;-67
2023/12/23 04:00:16;;;;;;;;;;;;;;;-0.60;75.09;98735.98;106506;1268;107754;-67
2023/12/23 04:02:46;;;;;;;;;;;;;;;-0.62;74.58;98733.35;106518;1268;97971;-67
2023/12/23 04:05:15;;;;;;;;;;;;;;;-0.67;74.57;98735.80;106500;1272;97985;-66
2023/12/23 04:07:46;;;;;;;;;;;;;;;-0.71;74.19;98732.79;106524;1268;110531;-67
2023/12/23 04:10:15;;;;;;;;;;;;;;;-0.75;74.17;98736.06;106519;1268;107822;-66
2023/12/23 04:12:43;;;;;;;;;;;;;;;-0.78;74.27;98735.02;106556;1268;106917;-66
2023/12/23 04:15:11;;;;;;;;;;;;;;;-0.77;74.32;98733.58;106413;1268;97866;-66
2023/12/23 04:17:39;;;;;;;;;;;;;;;-0.75;74.15;98735.72;106448;1268;97848;-66
2023/12/23 04:20:08;;;;;;;;;;;;;;;-0.74;74.32;98731.73;106528;1268;111794;-67
2023/12/23 04:22:37;;;;;;;;;;;;;;;-0.73;74.58;98733.09;106581;1268;106851;-67
2023/12/23 04:25:06;;;;;;;;;;;;;;;-0.71;74.55;98744.05;106525;1268;108133;-67
2023/12/23 04:27:34;;;;;;;;;;;;;;;-0.67;74.65;98737.77;106473;1268;97922;-67
2023/12/23 04:30:03;;;;;;;;;;;;;;;-0.68;74.60;98735.67;106549;1268;97955;-67
2023/12/23 04:32:32;;;;;;;;;;;;;;;-0.70;74.64;98735.99;106497;1268;111429;-67
2023/12/23 04:35:01;;;;;;;;;;;;;;;-0.73;74.57;98750.30;106464;1268;108466;-67
2023/12/23 04:37:30;;;;;;;;;;;;;;;-0.76;74.56;98740.16;106562;1271;108083;-67
2023/12/23 04:39:58;;;;;;;;;;;;;;;-0.79;74.56;98735.64;106512;1268;97904;-66
2023/12/23 04:42:26;;;;;;;;;;;;;;;-0.84;75.64;98746.52;106520;1268;97826;-67
2023/12/23 04:44:55;;;;;;;;;;;;;;;-0.88;75.32;98739.67;106536;1268;112060;-67
2023/12/23 04:47:23;;;;;;;;;;;;;;;-0.87;75.46;98748.17;106531;1268;108080;-66
2023/12/23 04:49:52;;;;;;;;;;;;;;;-0.85;75.84;98751.08;106425;1268;108788;-66
2023/12/23 04:52:20;;;;;;;;;;;;;;;-0.86;75.94;98753.04;106449;1268;97872;-67
2023/12/23 04:54:48;;;;;;;;;;;;;;;-0.84;75.87;98749.87;106441;1268;97770;-67
2023/12/23 04:57:17;;;;;;;;;;;;;;;-0.81;75.65;98755.52;106517;1268;111753;-67
2023/12/23 04:59:51;;;;;;;;;;;;;;;-0.78;75.92;98765.67;106546;1268;108775;-66
2023/12/23 05:02:19;;;;;;;;;;;;;;;-0.71;76.08;98771.87;106502;1268;108184;-67
2023/12/23 05:04:47;;;;;;;;;;;;;;;-0.64;76.25;98760.23;106456;1268;98549;-67
2023/12/23 05:07:15;;;;;;;;;;;;;;;-0.59;76.13;98752.81;106520;1273;97862;-68
2023/12/23 05:09:44;;;;;;;;;;;;;;;-0.53;76.52;98752.93;106399;1268;111926;-67
2023/12/23 05:12:12;;;;;;;;;;;;;;;-0.53;76.26;98756.92;106459;1268;108867;-67
2023/12/23 05:14:40;;;;;;;;;;;;;;;-0.48;76.34;98753.94;106386;1268;107410;-65
2023/12/23 05:17:08;;;;;;;;;;;;;;;-0.43;76.21;98754.08;106526;1268;97878;-66
2023/12/23 05:19:39;;;;;;;;;;;;;;;-0.36;76.76;98769.39;106508;1268;97840;-66
2023/12/23 05:22:07;;;;;;;;;;;;;;;-0.37;76.30;98779.16;106559;1268;111526;-65
2023/12/23 05:24:37;;;;;;;;;;;;;;;-0.38;76.51;98778.36;106553;1268;108507;-67
2023/12/23 05:27:05;;;;;;;;;;;;;;;-0.34;76.48;98782.80;106408;1268;108698;-67
2023/12/23 05:29:34;;;;;;;;;;;;;;;-0.27;76.73;98783.73;106561;1268;97860;-66
2023/12/23 05:32:03;;;;;;;;;;;;;;;-0.19;76.86;98790.83;106424;1268;97823;-66
2023/12/23 05:34:31;;;;;;;;;;;;;;;-0.09;77.02;98793.81;106528;1268;111333;-68
2023/12/23 05:36:59;;;;;;;;;;;;;;;-0.02;77.05;98801.88;106497;1268;107827;-66
2023/12/23 05:39:27;;;;;;;;;;;;;;;0.06;77.09;98816.10;106489;1268;108470;-67
2023/12/23 05:41:55;;;;;;;;;;;;;;;0.14;77.07;98827.81;106474;1268;98281;-64
2023/12/23 05:44:23;;;;;;;;;;;;;;;0.19;76.81;98838.77;106513;1268;97928;-66
2023/12/23 05:46:52;;;;;;;;;;;;;;;0.22;76.51;98848.08;106513;1273;111365;-66
2023/12/23 05:49:20;;;;;;;;;;;;;;;0.22;76.52;98856.55;106438;1268;107771;-67
2023/12/23 05:51:52;;;;;;;;;;;;;;;0.18;76.41;98862.85;106496;1268;108137;-64
2023/12/23 05:54:20;;;;;;;;;;;;;;;0.08;75.88;98857.17;106529;1268;97868;-65
2023/12/23 05:56:49;;;;;;;;;;;;;;;0.08;76.10;98858.14;106527;1268;97856;-66
2023/12/23 05:59:17;;;;;;;;;;;;;;;0.12;76.31;98853.04;106491;1268;111308;-66
2023/12/23 06:01:45;;;;;;;;;;;;;;;0.18;76.43;98852.22;106564;1268;108115;-67
2023/12/23 06:04:13;;;;;;;;;;;;;;;0.20;76.16;98841.67;106495;1268;107506;-68
2023/12/23 06:06:41;;;;;;;;;;;;;;;0.21;76.23;98833.65;106476;1268;98019;-66
2023/12/23 06:09:10;;;;;;;;;;;;;;;0.22;76.32;98837.14;106486;1268;97791;-66
2023/12/23 06:11:38;;;;;;;;;;;;;;;0.18;76.43;98835.48;106563;1268;111507;-67
2023/12/23 06:14:06;;;;;;;;;;;;;;;0.16;76.67;98827.00;106559;1272;108728;-66
2023/12/23 06:16:39;;;;;;;;;;;;;;;0.13;77.03;98821.73;106517;1268;108439;-65
2023/12/23 06:19:07;;;;;;;;;;;;;;;0.10;77.03;98821.80;106537;1268;97955;-66
2023/12/23 06:21:36;;;;;;;;;;;;;;;0.07;77.17;98821.66;106531;1268;97879;-66
2023/12/23 06:24:04;;;;;;;;;;;;;;;0.03;77.52;98814.61;106566;1268;111225;-64
2023/12/23 06:26:32;;;;;;;;;;;;;;;-0.01;77.64;98818.59;106521;1268;108409;-66
2023/12/23 06:29:00;;;;;;;;;;;;;;;-0.04;78.09;98813.89;106540;1268;108192;-66
2023/12/23 06:31:29;;;;;;;;;;;;;;;-0.07;78.14;98811.13;106521;1268;97862;-68
2023/12/23 06:33:57;;;;;;;;;;;;;;;-0.09;78.05;98815.66;106519;1268;97943;-67
2023/12/23 06:36:25;;;;;;;;;;;;;;;-0.09;77.99;98817.21;106476;1268;110802;-68
2023/12/23 06:38:54;;;;;;;;;;;;;;;-0.07;77.94;98824.13;106519;1268;108664;-68
2023/12/23 06:41:22;;;;;;;;;;;;;;;-0.04;77.53;98830.26;106519;1268;107409;-67
2023/12/23 06:43:50;;;;;;;;;;;;;;;0.01;77.67;98835.00;106504;1268;97850;-68
2023/12/23 06:46:20;;;;;;;;;;;;;;;0.08;77.79;98842.92;106515;1268;97949;-67
2023/12/23 06:48:49;;;;;;;;;;;;;;;0.16;77.74;98851.66;106492;1268;111724;-67
2023/12/23 06:51:18;;;;;;;;;;;;;;;0.24;77.80;98857.73;106476;1268;107568;-68
2023/12/23 06:53:49;;;;;;;;;;;;;;;0.34;77.68;98866.38;106529;1268;107753;-67
2023/12/23 06:56:17;;;;;;;;;;;;;;;0.41;77.62;98882.58;106499;1268;97866;-67
2023/12/23 06:58:45;;;;;;;;;;;;;;;0.44;77.28;98895.36;106437;1268;98028;-67
2023/12/23 07:01:14;;;;;;;;;;;;;;;0.46;77.04;98911.06;106459;1271;110302;-67
2023/12/23 07:03:42;;;;;;;;;;;;;;;0.52;77.12;98923.06;106543;1268;108550;-68
2023/12/23 07:06:12;;;;;;;;;;;;;;;0.57;77.06;98937.44;106510;1268;108687;-68
2023/12/23 07:08:40;;;;;;;;;;;;;;;0.60;76.82;98950.27;106553;1268;97931;-67
2023/12/23 07:11:11;;;;;;;;;;;;;;;0.59;76.73;98961.98;106546;1268;98064;-66
2023/12/23 07:13:39;;;;;;;;;;;;;;;0.55;77.03;98965.45;106502;1268;111995;-68
2023/12/23 07:16:08;;;;;;;;;;;;;;;0.51;77.92;98967.17;106487;1268;108372;-68
2023/12/23 07:18:36;;;;;;;;;;;;;;;0.42;78.87;98968.95;106452;1268;106404;-67
2023/12/23 07:21:05;;;;;;;;;;;;;;;0.37;79.18;98977.73;106508;1273;97855;-68
2023/12/23 07:23:33;;;;;;;;;;;;;;;0.34;79.98;98987.19;106513;1268;97946;-67
2023/12/23 07:26:02;;;;;;;;;;;;;;;0.32;80.50;98989.22;106515;1273;111230;-69
2023/12/23 07:28:30;;;;;;;;;;;;;;;0.29;80.85;98996.31;106489;1268;108693;-68
2023/12/23 07:30:59;;;;;;;;;;;;;;;0.27;81.52;98995.09;106485;1273;108348;-67
2023/12/23 07:33:28;;;;;;;;;;;;;;;0.27;81.78;98990.45;106484;1273;97879;-68
2023/12/23 07:35:57;;;;;;;;;;;;;;;0.29;81.74;98992.11;106539;1268;97724;-68
2023/12/23 07:38:25;;;;;;;;;;;;;;;0.31;82.10;99002.66;106495;1268;111726;-68
2023/12/23 07:40:54;;;;;;;;;;;;;;;0.32;82.60;99007.74;106519;1268;108333;-68
2023/12/23 07:43:22;;;;;;;;;;;;;;;0.32;82.81;99010.41;106511;1268;107134;-69
2023/12/23 07:45:50;;;;;;;;;;;;;;;0.34;82.86;99015.04;106492;1268;97855;-67
2023/12/23 07:48:19;;;;;;;;;;;;;;;0.39;82.48;99015.38;106530;1268;97921;-68
2023/12/23 07:50:47;;;;;;;;;;;;;;;0.44;82.58;99010.20;106565;1268;111965;-68
2023/12/23 07:53:15;;;;;;;;;;;;;;;0.50;82.31;99011.88;106522;1268;107869;-66
2023/12/23 07:55:44;;;;;;;;;;;;;;;0.58;82.03;99007.21;106496;1268;108442;-66
2023/12/23 07:58:12;;;;;;;;;;;;;;;0.68;82.21;99007.58;106453;1268;97887;-67
2023/12/23 08:00:41;;;;;;;;;;;;;;;0.68;81.98;99009.45;106470;1268;97730;-67
2023/12/23 08:03:09;;;;;;;;;;;;;;;0.66;81.61;99013.34;106502;1268;111618;-68
2023/12/23 08:05:37;;;;;;;;;;;;;;;0.65;81.88;99020.34;106506;1268;108254;-67
2023/12/23 08:08:07;;;;;;;;;;;;;;;0.62;81.95;99021.05;106490;1268;108611;-66
2023/12/23 08:10:35;;;;;;;;;;;;;;;0.62;81.85;99025.80;106539;1268;97847;-67
2023/12/23 08:13:04;;;;;;;;;;;;;;;0.61;81.81;99035.42;106519;1268;97949;-67
2023/12/23 08:15:32;;;;;;;;;;;;;;;0.62;81.80;99040.98;106508;1268;110569;-67
2023/12/23 08:18:00;;;;;;;;;;;;;;;0.68;81.72;99034.38;106546;1268;108187;-67
2023/12/23 08:20:29;;;;;;;;;;;;;;;0.82;81.86;99023.81;106515;1268;107641;-68
2023/12/23 08:22:57;;;;;;;;;;;;;;;0.97;81.66;99015.95;106401;1268;97950;-67
2023/12/23 08:25:26;;;;;;;;;;;;;;;1.06;81.17;99009.27;106504;1268;97856;-68
2023/12/23 08:27:54;;;;;;;;;;;;;;;1.15;80.96;99010.54;106548;1268;112134;-67
2023/12/23 08:30:22;;;;;;;;;;;;;;;1.31;80.97;99009.80;106468;1268;108394;-67
2023/12/23 08:32:50;;;;;;;;;;;;;;;1.64;80.21;99002.59;106458;1268;107276;-67
2023/12/23 08:35:19;;;;;;;;;;;;;;;2.16;77.91;99006.73;106492;1268;97929;-67
2023/12/23 08:37:47;;;;;;;;;;;;;;;2.96;76.92;98999.94;106522;1268;97881;-66
2023/12/23 08:40:16;;;;;;;;;;;;;;;3.69;75.26;99006.55;106571;1268;110394;-67
2023/12/23 08:42:45;;;;;;;;;;;;;;;4.30;72.18;99009.20;106416;1268;108554;-68
2023/12/23 08:45:13;;;;;;;;;;;;;;;4.75;69.54;99005.23;106514;1268;107113;-67
2023/12/23 08:47:41;;;;;;;;;;;;;;;5.28;68.84;99003.14;106515;1268;97882;-68
2023/12/23 08:50:10;;;;;;;;;;;;;;;5.91;68.33;98994.82;106496;1268;97862;-68
2023/12/23 08:52:38;;;;;;;;;;;;;;;6.39;65.87;98990.37;106528;1268;111741;-67
2023/12/23 08:55:06;;;;;;;;;;;;;;;6.84;64.68;98984.25;106513;1268;107535;-67
2023/12/23 08:57:34;;;;;;;;;;;;;;;7.45;66.18;98982.86;106514;1268;106353;-67
2023/12/23 09:00:05;;;;;;;;;;;;;;;8.06;66.79;98986.28;106499;1268;97856;-67
2023/12/23 09:02:34;;;;;;;;;;;;;;;8.24;59.81;98987.63;106491;1268;97891;-66
2023/12/23 09:05:02;;;;;;;;;;;;;;;8.22;60.46;98984.91;106433;1268;111745;-67
2023/12/23 09:07:30;;;;;;;;;;;;;;;8.48;61.33;98993.46;106497;1268;108510;-68
2023/12/23 09:10:03;;;;;;;;;;;;;;;8.89;60.50;99002.97;106495;1268;107448;-67
2023/12/23 09:12:33;;;;;;;;;;;;;;;9.22;59.39;98999.56;106483;1268;97758;-67
2023/12/23 09:15:01;;;;;;;;;;;;;;;9.22;56.41;99006.16;106507;1268;97863;-68
2023/12/23 09:17:29;;;;;;;;;;;;;;;8.51;55.99;99013.34;106491;1273;112313;-70
2023/12/23 09:20:04;;;;;;;;;;;;;;;7.75;54.91;99022.73;106515;1268;108551;-68
2023/12/23 09:22:32;;;;;;;;;;;;;;;6.96;55.39;99029.05;106501;1269;107487;-66
2023/12/23 09:25:00;;;;;;;;;;;;;;;6.51;57.60;99036.77;106459;1268;98039;-66
2023/12/23 09:27:30;;;;;;;;;;;;;;;6.19;57.43;99043.18;106583;1273;97748;-66
2023/12/23 09:29:59;;;;;;;;;;;;;;;5.68;57.50;99052.40;106509;1269;111905;-66
2023/12/23 09:32:28;;;;;;;;;;;;;;;5.23;58.80;99052.66;106525;1268;107982;-68
2023/12/23 09:34:56;;;;;;;;;;;;;;;4.98;59.92;99056.92;106472;1269;109021;-66
2023/12/23 09:37:25;;;;;;;;;;;;;;;4.72;60.22;99055.56;106438;1268;98000;-67
2023/12/23 09:39:53;;;;;;;;;;;;;;;4.35;60.95;99069.77;106490;1268;97733;-66
2023/12/23 09:42:22;;;;;;;;;;;;;;;3.96;61.62;99089.48;106471;1273;110894;-67
2023/12/23 09:44:52;;;;;;;;;;;;;;;3.56;63.15;99108.25;106517;1268;107276;-66
2023/12/23 09:47:20;;;;;;;;;;;;;;;3.32;64.09;99097.52;106488;1273;108462;-67
2023/12/23 09:49:48;;;;;;;;;;;;;;;3.10;65.27;99095.15;106458;1268;97994;-67
2023/12/23 09:52:17;;;;;;;;;;;;;;;2.84;66.61;99107.02;106458;1268;97772;-68
2023/12/23 09:54:47;;;;;;;;;;;;;;;2.54;67.58;99106.06;106431;1268;111934;-68
2023/12/23 09:57:17;;;;;;;;;;;;;;;2.24;68.75;99103.00;106556;1268;108622;-67
2023/12/23 09:59:48;;;;;;;;;;;;;;;2.08;69.95;99111.73;106484;1269;107364;-67
2023/12/23 10:02:17;;;;;;;;;;;;;;;1.93;70.68;99112.55;106502;1267;98151;-68
2023/12/23 10:04:45;;;;;;;;;;;;;;;1.99;71.51;99118.14;106393;1268;97773;-68
2023/12/23 10:07:17;;;;;;;;;;;;;;;2.20;71.15;99113.09;106488;1268;111821;-67
2023/12/23 10:09:47;;;;;;;;;;;;;;;2.38;71.04;99109.70;106499;1273;107898;-67
2023/12/23 10:12:16;;;;;;;;;;;;;;;2.81;70.77;99090.83;106438;1273;107747;-68
2023/12/23 10:14:44;;;;;;;;;;;;;;;3.03;70.63;99076.25;105801;1268;933317;-67
2023/12/23 10:17:13;;;;;;;;;;;;;;;3.47;69.86;99058.48;106540;1274;97771;-68
2023/12/23 10:19:41;;;;;;;;;;;;;;;4.43;68.33;99065.33;106521;1268;110831;-67
2023/12/23 10:22:11;;;;;;;;;;;;;;;5.27;62.58;99060.37;106541;1268;108207;-67
2023/12/23 10:24:39;;;;;;;;;;;;;;;5.74;59.46;99046.61;106467;1273;108004;-67
2023/12/23 10:27:07;;;;;;;;;;;;;;;6.30;58.62;99046.27;106445;1268;98006;-67
2023/12/23 10:29:37;;;;;;;;;;;;;;;6.75;57.19;99050.40;106498;1268;97972;-68
2023/12/23 10:32:06;;;;;;;;;;;;;;;7.38;56.10;99049.24;106523;1269;112136;-68
2023/12/23 10:34:44;;;;;;;;;;;;;;;7.65;56.24;99052.73;106517;1268;106708;-67
2023/12/23 10:37:13;;;;;;;;;;;;;;;7.31;52.57;99062.08;106545;1268;107710;-66
2023/12/23 10:39:49;;;;;;;;;;;;;;;7.57;53.33;99058.02;106423;1269;97953;-67
2023/12/23 10:42:21;;;;;;;;;;;;;;;8.01;51.72;99068.30;106528;1268;97869;-67
2023/12/23 10:44:50;;;;;;;;;;;;;;;7.61;49.32;99073.30;106504;1268;111677;-66
2023/12/23 10:47:19;;;;;;;;;;;;;;;7.64;50.86;99069.19;106499;1269;108419;-67
2023/12/23 10:49:49;;;;;;;;;;;;;;;8.23;49.66;99072.52;106489;1273;108085;-66
2023/12/23 10:52:18;;;;;;;;;;;;;;;9.06;50.39;99071.88;106535;1268;97941;-67
2023/12/23 10:54:46;;;;;;;;;;;;;;;9.65;47.67;99076.89;106443;1268;97962;-66
2023/12/23 10:57:15;;;;;;;;;;;;;;;9.98;47.37;99076.98;106386;1268;111561;-68
2023/12/23 10:59:43;;;;;;;;;;;;;;;10.69;46.46;99080.02;106529;1268;108579;-68
2023/12/23 11:02:15;;;;;;;;;;;;;;;10.85;42.81;99073.55;106536;1269;107899;-68
2023/12/23 11:04:46;;;;;;;;;;;;;;;11.17;43.62;99067.95;106532;1269;97752;-66
2023/12/23 11:07:16;;;;;;;;;;;;;;;11.67;43.16;99070.39;106464;1268;97872;-67
2023/12/23 11:09:46;;;;;;;;;;;;;;;12.01;41.63;99066.77;106528;1268;111602;-67
2023/12/23 11:12:15;;;;;;;;;;;;;;;11.90;42.01;99061.71;106496;1268;107677;-67
2023/12/23 11:14:44;;;;;;;;;;;;;;;11.01;41.73;99059.05;106500;1273;108541;-68
2023/12/23 11:17:22;;;;;;;;;;;;;;;10.15;42.49;99070.18;106477;1273;98606;-67
2023/12/23 11:19:54;;;;;;;;;;;;;;;9.18;42.93;99094.23;106576;1268;97875;-67
2023/12/23 11:22:23;;;;;;;;;;;;;;;7.95;43.62;99105.41;106509;1273;112240;-68
2023/12/23 11:24:52;;;;;;;;;;;;;;;7.32;45.20;99102.74;106578;1268;106836;-68
2023/12/23 11:27:47;;;;;;;;;;;;;;;6.55;45.96;99103.11;106484;1268;107640;-68
2023/12/23 11:30:15;;;;;;;;;;;;;;;6.28;46.58;99095.23;106432;1268;97894;-67
2023/12/23 11:32:43;;;;;;;;;;;;;;;6.16;47.18;99095.91;106534;1268;97955;-67
2023/12/23 11:35:12;;;;;;;;;;;;;;;6.03;47.86;99093.20;106543;1268;112420;-66
2023/12/23 11:38:01;;;;;;;;;;;;;;;5.67;47.92;99097.27;106537;1269;107481;-67
2023/12/23 11:40:33;;;;;;;;;;;;;;;5.16;48.75;99099.91;106521;1272;107235;-66
2023/12/23 11:43:02;;;;;;;;;;;;;;;4.84;49.70;99103.17;106461;1268;97961;-67
2023/12/23 11:45:30;;;;;;;;;;;;;;;4.51;50.84;99105.80;106569;1271;97859;-67
2023/12/23 11:47:58;;;;;;;;;;;;;;;4.22;51.56;99109.77;106507;1268;111817;-67
2023/12/23 11:50:27;;;;;;;;;;;;;;;3.94;52.59;99113.63;106561;1269;108635;-67
2023/12/23 11:52:56;;;;;;;;;;;;;;;3.77;52.92;99120.64;106539;1268;108641;-68
2023/12/23 11:55:25;;;;;;;;;;;;;;;3.53;52.99;99118.76;106566;1268;97885;-67
2023/12/23 11:57:54;;;;;;;;;;;;;;;3.39;53.68;99109.84;106548;1268;97786;-67
2023/12/23 12:00:23;;;;;;;;;;;;;;;3.28;54.43;99104.62;106484;1273;111728;-67
2023/12/23 12:02:51;;;;;;;;;;;;;;;3.13;54.86;99105.16;106498;1269;108619;-68
2023/12/23 12:05:20;;;;;;;;;;;;;;;3.01;55.29;99104.36;106523;1268;107362;-65
2023/12/23 12:07:48;;;;;;;;;;;;;;;2.91;55.32;99111.20;106538;1268;97123;-67
2023/12/23 12:10:16;;;;;;;;;;;;;;;2.87;55.34;99118.85;106522;1272;97888;-65
2023/12/23 12:12:45;;;;;;;;;;;;;;;2.84;55.37;99119.98;106520;1268;111889;-65
2023/12/23 12:15:13;;;;;;;;;;;;;;;2.87;55.16;99115.76;106511;1273;108470;-66
2023/12/23 12:17:41;;;;;;;;;;;;;;;2.99;55.22;99110.70;106420;1268;108100;-66
2023/12/23 12:20:10;;;;;;;;;;;;;;;3.16;55.10;99117.66;106498;1268;97998;-66
2023/12/23 12:22:43;;;;;;;;;;;;;;;3.24;54.56;99121.04;106482;1273;98166;-64
2023/12/23 12:25:16;;;;;;;;;;;;;;;3.23;53.56;99129.32;106495;1273;112321;-64
2023/12/23 12:27:44;;;;;;;;;;;;;;;3.17;53.92;99133.14;106559;1268;107163;-63
2023/12/23 12:30:12;;;;;;;;;;;;;;;3.07;54.42;99138.75;106503;1272;107612;-64
2023/12/23 12:32:43;;;;;;;;;;;;;;;2.98;54.62;99141.98;106523;1273;97865;-63
2023/12/23 12:35:12;;;;;;;;;;;;;;;2.88;55.28;99142.27;106576;1268;97734;-64
2023/12/23 12:37:40;;;;;;;;;;;;;;;2.79;55.52;99147.23;106573;1268;110991;-65
2023/12/23 12:40:12;;;;;;;;;;;;;;;2.72;55.85;99142.91;106530;1268;108582;-63
2023/12/23 12:42:44;;;;;;;;;;;;;;;2.66;56.78;99149.15;106557;1270;106800;-64
2023/12/23 12:45:14;;;;;;;;;;;;;;;2.66;57.08;99138.73;106459;1273;97894;-63